Terminal Aerodrome Forecast
Issued by NWS

Home | Current Version | Previous Version | Text Only | Print | Product List | Glossary On
Versions: 1 2 3 4 5 6 7 8 9 10 11 12 13 14 15 16 17
645
FTUS43 KMPX 011415 AAA
TAFAXN
TAF AMD
KAXN 011415Z 0114/0212 10006KT 1/2SM FG VV002
     FM011530 11007KT 2SM BR OVC003
     FM011630 13007KT 4SM BR BKN005
     FM011700 13008KT P6SM SCT040
     FM020900 12003KT 1/4SM FG VV002=

USA.gov is the U.S. government's official web portal to all federal, state and local government web resources and services.